Time;durP1;ratioP1;P1;durP2;ratioP2;P2;SDS_P1;SDS_P2;PMS_P1;PMS_P2;Temp;Humidity;BMP_temperature;BMP_pressure;BME280_temperature;BME280_humidity;BME280_pressure;Samples;Min_cycle;Max_cycle;Signal;HPM_P1;HPM_P2
2022/09/23 00:01:31;;;;;;;2.30;0.40;;;;;;;-145.06;100.00;60892.56;5938565;23;20449;-91
2022/09/23 00:04:10;;;;;;;0.30;0.30;;;;;;;-145.06;100.00;60892.56;5939063;23;20037;-92
2022/09/23 00:06:49;;;;;;;0.47;0.40;;;;;;;-145.06;100.00;60892.56;5938846;23;20010;-91
2022/09/23 00:09:28;;;;;;;0.60;0.30;;;;;;;-145.06;100.00;60892.56;5939409;23;20033;-92
2022/09/23 00:12:09;;;;;;;2.00;0.40;;;;;;;-145.06;100.00;60892.56;5939057;23;20009;-92
2022/09/23 00:14:47;;;;;;;0.40;0.40;;;;;;;-145.06;100.00;60892.56;5939102;23;20029;-92
2022/09/23 00:17:26;;;;;;;0.80;0.33;;;;;;;-145.06;100.00;60892.56;5938590;23;20009;-94
2022/09/23 00:20:09;;;;;;;0.40;0.40;;;;;;;-145.06;100.00;60892.56;5939671;23;20036;-93
2022/09/23 00:22:48;;;;;;;0.38;0.38;;;;;;;-145.06;100.00;60892.56;5938920;23;20310;-92
2022/09/23 00:25:28;;;;;;;0.32;0.30;;;;;;;-145.06;100.00;60892.56;5939068;23;20009;-92
2022/09/23 00:28:07;;;;;;;0.30;0.30;;;;;;;-145.06;100.00;60892.56;5939010;23;20006;-92
2022/09/23 00:30:47;;;;;;;0.68;0.40;;;;;;;-145.06;100.00;60892.56;5939060;23;20080;-92
2022/09/23 00:33:26;;;;;;;0.63;0.47;;;;;;;-145.06;100.00;60892.56;5939444;23;20005;-93
2022/09/23 00:36:07;;;;;;;0.70;0.30;;;;;;;-145.06;100.00;60892.56;5938802;23;20013;-91
2022/09/23 00:38:46;;;;;;;1.02;0.40;;;;;;;-145.06;100.00;60892.56;5938411;23;20441;-93
2022/09/23 00:41:25;;;;;;;0.88;0.57;;;;;;;-145.06;100.00;60892.56;5939329;23;20180;-93
2022/09/23 00:44:42;;;;;;;0.93;0.52;;;;;;;-145.06;100.00;60892.56;5938875;23;20009;-93
2022/09/23 00:47:52;;;;;;;1.63;0.60;;;;;;;-145.06;100.00;60892.56;5938535;23;20104;-92
2022/09/23 00:50:39;;;;;;;0.68;0.50;;;;;;;-145.06;100.00;60892.56;5938751;23;19997;-93
2022/09/23 00:53:22;;;;;;;2.05;0.35;;;;;;;-145.06;100.00;60892.56;5938093;23;20440;-92
2022/09/23 00:56:06;;;;;;;0.82;0.50;;;;;;;-145.06;100.00;60892.56;5938631;23;20520;-94
2022/09/23 00:58:47;;;;;;;0.93;0.40;;;;;;;-145.06;100.00;60892.56;5938113;23;20037;-93
2022/09/23 01:01:26;;;;;;;0.70;0.50;;;;;;;-145.06;100.00;60892.56;5938664;23;20010;-93
2022/09/23 01:04:06;;;;;;;1.05;0.52;;;;;;;-145.06;100.00;60892.56;5938839;23;20420;-92
2022/09/23 01:06:45;;;;;;;0.50;0.40;;;;;;;-145.06;100.00;60892.56;5938394;23;20029;-92
2022/09/23 01:09:25;;;;;;;0.82;0.60;;;;;;;-145.06;100.00;60892.56;5939292;23;20365;-93
2022/09/23 01:12:40;;;;;;;0.40;0.30;;;;;;;-145.06;100.00;60892.56;5938913;23;20009;-92
2022/09/23 01:15:44;;;;;;;0.50;0.40;;;;;;;-145.06;100.00;60892.56;5940526;23;20010;-92
2022/09/23 01:18:42;;;;;;;0.40;0.30;;;;;;;-145.06;100.00;60892.56;5940896;23;20021;-93
2022/09/23 01:21:35;;;;;;;0.60;0.40;;;;;;;-145.06;100.00;60892.56;5940333;23;20002;-91
2022/09/23 01:24:51;;;;;;;0.40;0.32;;;;;;;-145.06;100.00;60892.56;5940066;23;20013;-94
2022/09/23 01:27:52;;;;;;;0.70;0.40;;;;;;;-145.06;100.00;60892.56;5852997;23;20059;-93
2022/09/23 01:31:11;;;;;;;0.68;0.50;;;;;;;-145.06;100.00;60892.56;5940870;23;20002;-93
2022/09/23 01:34:01;;;;;;;0.70;0.43;;;;;;;-145.06;100.00;60892.56;5833846;23;20002;-92
2022/09/23 01:36:53;;;;;;;0.50;0.40;;;;;;;-145.06;100.00;60892.56;5939693;23;20433;-93
2022/09/23 01:39:41;;;;;;;0.60;0.40;;;;;;;-145.06;100.00;60892.56;5939841;23;20060;-93
2022/09/23 01:42:25;;;;;;;0.40;0.40;;;;;;;-145.06;100.00;60892.56;5939866;23;20005;-92
2022/09/23 01:45:20;;;;;;;0.50;0.40;;;;;;;-145.06;100.00;60892.56;5940617;23;20010;-94
2022/09/23 01:48:19;;;;;;;0.38;0.38;;;;;;;-145.06;100.00;60892.56;5939969;23;20005;-92
2022/09/23 01:51:12;;;;;;;0.47;0.47;;;;;;;-145.06;100.00;60892.56;5939917;23;20029;-92
2022/09/23 01:54:10;;;;;;;3.95;0.50;;;;;;;-145.06;100.00;60892.56;5939575;23;20005;-90
2022/09/23 01:57:36;;;;;;;0.50;0.40;;;;;;;-145.06;100.00;60892.56;5939599;23;20010;-92
2022/09/23 02:00:17;;;;;;;0.85;0.30;;;;;;;-145.06;100.00;60892.56;5909808;23;20014;-93
2022/09/23 02:03:06;;;;;;;0.80;0.57;;;;;;;-145.06;100.00;60892.56;5939469;23;20521;-95
2022/09/23 02:05:49;;;;;;;0.43;0.32;;;;;;;-145.06;100.00;60892.56;5939616;23;20032;-92
2022/09/23 02:08:36;;;;;;;0.73;0.50;;;;;;;-145.06;100.00;60892.56;5938979;23;20088;-93
2022/09/23 02:11:16;;;;;;;0.70;0.40;;;;;;;-145.06;100.00;60892.56;5940302;23;20005;-93
2022/09/23 02:14:06;;;;;;;0.68;0.30;;;;;;;-145.06;100.00;60892.56;5939616;23;20060;-92
2022/09/23 02:16:49;;;;;;;0.60;0.43;;;;;;;-145.06;100.00;60892.56;5939605;23;20005;-91
2022/09/23 02:19:35;;;;;;;0.40;0.30;;;;;;;-145.06;100.00;60892.56;5939846;23;20013;-91
2022/09/23 02:22:21;;;;;;;0.40;0.40;;;;;;;-145.06;100.00;60892.56;5939658;23;20010;-94
2022/09/23 02:25:02;;;;;;;0.55;0.43;;;;;;;-145.06;100.00;60892.56;5939094;23;20010;-93
2022/09/23 02:28:30;;;;;;;0.57;0.30;;;;;;;-145.06;100.00;60892.56;5939650;23;20010;-92
2022/09/23 02:31:44;;;;;;;0.30;0.30;;;;;;;-145.06;100.00;60892.56;5909973;23;20048;-92
2022/09/23 02:34:36;;;;;;;0.50;0.30;;;;;;;-145.06;100.00;60892.56;5939533;23;20029;-92
2022/09/23 02:37:38;;;;;;;0.63;0.43;;;;;;;-145.06;100.00;60892.56;5939177;23;20006;-92
2022/09/23 02:40:23;;;;;;;0.25;0.25;;;;;;;-145.06;100.00;60892.56;5939425;23;20001;-93
2022/09/23 02:43:47;;;;;;;0.43;0.43;;;;;;;-145.06;100.00;60892.56;5939466;23;20033;-92
2022/09/23 02:46:28;;;;;;;0.38;0.38;;;;;;;-145.06;100.00;60892.56;5916746;23;20005;-92
2022/09/23 02:49:13;;;;;;;0.43;0.40;;;;;;;-145.06;100.00;60892.56;5939321;23;20005;-94
2022/09/23 02:51:53;;;;;;;0.40;0.35;;;;;;;-145.06;100.00;60892.56;5940143;23;20013;-92
2022/09/23 02:54:34;;;;;;;0.63;0.32;;;;;;;-145.06;100.00;60892.56;5940283;23;20318;-92
2022/09/23 02:57:13;;;;;;;0.60;0.30;;;;;;;-145.06;100.00;60892.56;5939284;23;20009;-92
2022/09/23 02:59:52;;;;;;;1.38;0.55;;;;;;;-145.06;100.00;60892.56;5939265;23;20009;-92
2022/09/23 03:03:09;;;;;;;0.70;0.40;;;;;;;-145.06;100.00;60892.56;5939766;23;20097;-93
2022/09/23 03:05:56;;;;;;;0.57;0.45;;;;;;;-145.06;100.00;60892.56;5939623;23;20006;-93
2022/09/23 03:08:49;;;;;;;0.40;0.40;;;;;;;-145.06;100.00;60892.56;5939073;23;20005;-92
2022/09/23 03:11:29;;;;;;;0.47;0.30;;;;;;;-145.06;100.00;60892.56;5938829;23;20306;-93
2022/09/23 03:14:17;;;;;;;0.20;0.20;;;;;;;-145.06;100.00;60892.56;5939302;23;20010;-92
2022/09/23 03:17:02;;;;;;;0.28;0.28;;;;;;;-145.06;100.00;60892.56;5939213;23;20009;-92
2022/09/23 03:19:49;;;;;;;0.38;0.38;;;;;;;-145.06;100.00;60892.56;5938526;23;20006;-93
2022/09/23 03:22:42;;;;;;;0.43;0.30;;;;;;;-145.06;100.00;60892.56;5939236;23;20009;-91
2022/09/23 03:25:24;;;;;;;0.50;0.30;;;;;;;-145.06;100.00;60892.56;5939171;23;20010;-93
2022/09/23 03:28:05;;;;;;;0.32;0.30;;;;;;;-145.06;100.00;60892.56;5939774;23;20005;-93
2022/09/23 03:30:45;;;;;;;0.40;0.40;;;;;;;-145.06;100.00;60892.56;5948829;23;20036;-94
2022/09/23 03:33:26;;;;;;;0.30;0.30;;;;;;;-145.06;100.00;60892.56;5939428;23;20374;-94
2022/09/23 03:39:11;;;;;;;1.20;0.40;;;;;;;-145.06;100.00;60892.56;5949554;23;20009;-92
2022/09/23 03:41:54;;;;;;;0.60;0.50;;;;;;;-145.06;100.00;60892.56;5939028;23;20017;-93
2022/09/23 03:44:38;;;;;;;0.45;0.40;;;;;;;-145.06;100.00;60892.56;5938416;23;20424;-92
2022/09/23 03:47:17;;;;;;;0.77;0.50;;;;;;;-145.06;100.00;60892.56;5939399;23;20035;-92
2022/09/23 03:50:00;;;;;;;0.55;0.45;;;;;;;-145.06;100.00;60892.56;5939998;23;20005;-92
2022/09/23 03:52:49;;;;;;;0.52;0.35;;;;;;;-145.06;100.00;60892.56;5940153;23;20001;-94
2022/09/23 03:55:28;;;;;;;0.43;0.40;;;;;;;-145.06;100.00;60892.56;5942959;23;20013;-93
2022/09/23 03:58:07;;;;;;;0.40;0.40;;;;;;;-145.06;100.00;60892.56;5939632;23;20005;-93
2022/09/23 04:00:45;;;;;;;0.43;0.43;;;;;;;-145.06;100.00;60892.56;5938737;23;20013;-92
2022/09/23 04:03:26;;;;;;;0.60;0.40;;;;;;;-145.06;100.00;60892.56;5939939;23;20081;-93
2022/09/23 04:10:55;;;;;;;;;;;;;;;;;;;;;
2022/09/23 04:17:11;;;;;;;0.50;0.45;;;;;;;-145.06;100.00;60892.56;5904345;23;20022;-92
2022/09/23 04:20:17;;;;;;;;;;;;;;;;;;;;;
2022/09/23 04:23:02;;;;;;;0.60;0.30;;;;;;;-145.06;100.00;60892.56;5921413;23;20002;-91
2022/09/23 04:25:49;;;;;;;0.28;0.28;;;;;;;-145.06;100.00;60892.56;5910400;23;20244;-91
2022/09/23 04:28:37;;;;;;;0.57;0.50;;;;;;;-145.06;100.00;60892.56;5911392;23;20445;-91
2022/09/23 04:31:22;;;;;;;0.77;0.50;;;;;;;-145.06;100.00;60892.56;5911660;23;20005;-92
2022/09/23 04:34:01;;;;;;;0.32;0.32;;;;;;;-145.06;100.00;60892.56;5911239;23;20029;-90
2022/09/23 04:36:47;;;;;;;0.88;0.40;;;;;;;-145.06;100.00;60892.56;5911077;23;20005;-91
2022/09/23 04:39:29;;;;;;;0.40;0.40;;;;;;;-145.06;100.00;60892.56;5911019;23;20009;-94
2022/09/23 04:42:08;;;;;;;0.75;0.60;;;;;;;-145.06;100.00;60892.56;5911025;23;20034;-91
2022/09/23 04:44:47;;;;;;;0.50;0.40;;;;;;;-145.06;100.00;60892.56;5910040;23;20014;-91
2022/09/23 04:47:27;;;;;;;0.40;0.40;;;;;;;-145.06;100.00;60892.56;5910156;23;20010;-93
2022/09/23 04:50:06;;;;;;;0.35;0.30;;;;;;;-145.06;100.00;60892.56;5912014;23;20279;-91
2022/09/23 04:52:45;;;;;;;0.40;0.40;;;;;;;-145.06;100.00;60892.56;5912652;23;20184;-91
2022/09/23 04:55:27;;;;;;;0.68;0.50;;;;;;;-145.06;100.00;60892.56;5912841;23;20085;-92
2022/09/23 04:58:07;;;;;;;0.50;0.35;;;;;;;-145.06;100.00;60892.56;5912867;23;20033;-92
2022/09/23 05:00:47;;;;;;;0.70;0.45;;;;;;;-145.06;100.00;60892.56;5912296;23;20006;-92
2022/09/23 05:03:29;;;;;;;1.42;0.52;;;;;;;-145.06;100.00;60892.56;5912643;23;20006;-91
2022/09/23 05:06:12;;;;;;;0.35;0.35;;;;;;;-145.06;100.00;60892.56;5912986;23;20010;-90
2022/09/23 05:08:54;;;;;;;0.40;0.40;;;;;;;-145.06;100.00;60892.56;5912771;23;20093;-91
2022/09/23 05:11:33;;;;;;;0.47;0.47;;;;;;;-145.06;100.00;60892.56;5912315;23;20001;-93
2022/09/23 05:14:16;;;;;;;0.60;0.50;;;;;;;-145.06;100.00;60892.56;5911749;23;20010;-93
2022/09/23 05:16:55;;;;;;;0.50;0.40;;;;;;;-145.06;100.00;60892.56;5911963;23;20085;-91
2022/09/23 05:20:16;;;;;;;0.50;0.40;;;;;;;-145.06;100.00;60892.56;5912916;23;20085;-91
2022/09/23 05:22:55;;;;;;;0.63;0.40;;;;;;;-145.06;100.00;60892.56;5912315;23;20429;-92
2022/09/23 05:25:44;;;;;;;0.40;0.40;;;;;;;-145.06;100.00;60892.56;5912077;23;20037;-91
2022/09/23 05:28:23;;;;;;;0.40;0.40;;;;;;;-145.06;100.00;60892.56;5912990;23;20410;-91
2022/09/23 05:31:13;;;;;;;2.42;0.75;;;;;;;-145.06;100.00;60892.56;5912146;23;20002;-92
2022/09/23 05:33:58;;;;;;;0.40;0.40;;;;;;;-145.06;100.00;60892.56;5912436;23;20006;-93
2022/09/23 05:36:37;;;;;;;0.50;0.50;;;;;;;-145.06;100.00;60892.56;5912164;23;20493;-92
2022/09/23 05:39:16;;;;;;;1.00;0.60;;;;;;;-145.06;100.00;60892.56;5912237;23;20037;-91
2022/09/23 05:41:55;;;;;;;1.00;0.53;;;;;;;-145.06;100.00;60892.56;5912130;23;20009;-90
2022/09/23 05:44:34;;;;;;;0.50;0.50;;;;;;;-145.06;100.00;60892.56;5912210;23;20010;-91
2022/09/23 05:47:13;;;;;;;2.47;0.63;;;;;;;-145.06;100.00;60892.56;5912270;23;20010;-92
2022/09/23 05:49:55;;;;;;;0.47;0.47;;;;;;;-145.06;100.00;60892.56;5912741;23;20033;-92
2022/09/23 05:52:42;;;;;;;0.85;0.50;;;;;;;-145.06;100.00;60892.56;5912662;23;20237;-91
2022/09/23 05:55:41;;;;;;;1.05;0.60;;;;;;;-145.06;100.00;60892.56;5912504;23;20005;-92
2022/09/23 05:58:22;;;;;;;0.47;0.40;;;;;;;-145.06;100.00;60892.56;5912482;23;20006;-92
2022/09/23 06:01:09;;;;;;;0.60;0.50;;;;;;;-145.06;100.00;60892.56;5912209;23;20010;-92
2022/09/23 06:04:02;;;;;;;0.82;0.50;;;;;;;-145.06;100.00;60892.56;5912863;23;20005;-92
2022/09/23 06:06:42;;;;;;;0.55;0.50;;;;;;;-145.06;100.00;60892.56;5913251;23;20010;-93
2022/09/23 06:09:30;;;;;;;0.90;0.60;;;;;;;-145.06;100.00;60892.56;5912419;23;20009;-92
2022/09/23 06:12:16;;;;;;;0.63;0.50;;;;;;;-145.06;100.00;60892.56;5920899;23;20002;-92
2022/09/23 06:15:00;;;;;;;0.98;0.60;;;;;;;-145.06;100.00;60892.56;5891028;23;20369;-92
2022/09/23 06:17:42;;;;;;;0.88;0.65;;;;;;;-145.06;100.00;60892.56;5889637;23;20009;-90
2022/09/23 06:20:21;;;;;;;1.20;0.68;;;;;;;-145.06;100.00;60892.56;5889889;23;20006;-91
2022/09/23 06:23:05;;;;;;;1.23;0.52;;;;;;;-145.06;100.00;60892.56;5917569;23;20034;-93
2022/09/23 06:25:44;;;;;;;0.63;0.57;;;;;;;-145.06;100.00;60892.56;5919548;23;20326;-91
2022/09/23 06:28:23;;;;;;;1.17;0.65;;;;;;;-145.06;100.00;60892.56;5912024;23;20006;-93
2022/09/23 06:31:07;;;;;;;0.70;0.60;;;;;;;-145.06;100.00;60892.56;5912063;23;20006;-91
2022/09/23 06:33:48;;;;;;;0.50;0.40;;;;;;;-145.06;100.00;60892.56;5911684;23;20002;-91
2022/09/23 06:36:27;;;;;;;0.60;0.60;;;;;;;-145.06;100.00;60892.56;5911878;23;20463;-91
2022/09/23 06:39:06;;;;;;;0.68;0.50;;;;;;;-145.06;100.00;60892.56;5912156;23;20033;-91
2022/09/23 06:41:47;;;;;;;0.40;0.40;;;;;;;-145.06;100.00;60892.56;5911349;23;20006;-93
2022/09/23 06:44:27;;;;;;;0.88;0.57;;;;;;;-145.06;100.00;60892.56;5911958;23;20310;-92
2022/09/23 06:47:06;;;;;;;1.38;0.82;;;;;;;-145.06;100.00;60892.56;5911516;23;20192;-91
2022/09/23 06:49:46;;;;;;;0.50;0.50;;;;;;;-145.06;100.00;60892.56;5911802;23;20002;-92
2022/09/23 06:52:27;;;;;;;0.52;0.40;;;;;;;-145.06;100.00;60892.56;5912779;23;20010;-91
2022/09/23 06:55:08;;;;;;;;;;;;;;;-145.06;100.00;60892.56;5912107;23;20010;-91
2022/09/23 06:57:48;;;;;;;0.60;0.35;;;;;;;-145.06;100.00;60892.56;5911862;23;19905;-95
2022/09/23 07:00:29;;;;;;;0.40;0.40;;;;;;;-145.06;100.00;60892.56;5911292;23;20006;-92
2022/09/23 07:03:11;;;;;;;0.73;0.60;;;;;;;-145.06;100.00;60892.56;5911561;23;20006;-91
2022/09/23 07:05:54;;;;;;;0.52;0.35;;;;;;;-145.06;100.00;60892.56;5911505;23;20093;-92
2022/09/23 07:08:34;;;;;;;0.63;0.40;;;;;;;-145.06;100.00;60892.56;5911632;23;20009;-91
2022/09/23 07:11:14;;;;;;;;;;;;;;;-145.06;100.00;60892.56;5912003;23;20006;-90
2022/09/23 07:13:53;;;;;;;;;;;;;;;-145.06;100.00;60892.56;5912161;23;19905;-91
2022/09/23 07:16:32;;;;;;;1.08;0.50;;;;;;;-145.06;100.00;60892.56;5911679;23;20210;-91
2022/09/23 07:19:14;;;;;;;0.68;0.63;;;;;;;-145.06;100.00;60892.56;5911608;23;20010;-93
2022/09/23 07:21:57;;;;;;;1.00;0.50;;;;;;;-145.06;100.00;60892.56;5911117;23;20315;-91
2022/09/23 07:24:37;;;;;;;0.55;0.40;;;;;;;-145.06;100.00;60892.56;5911526;23;20006;-90
2022/09/23 07:27:18;;;;;;;0.60;0.50;;;;;;;-145.06;100.00;60892.56;5911186;23;20010;-91
2022/09/23 07:29:58;;;;;;;0.47;0.40;;;;;;;-145.06;100.00;60892.56;5911874;23;20006;-93
2022/09/23 07:32:46;;;;;;;0.77;0.40;;;;;;;-145.06;100.00;60892.56;5911290;23;20005;-92
2022/09/23 07:35:29;;;;;;;0.47;0.30;;;;;;;-145.06;100.00;60892.56;5911064;23;20441;-93
2022/09/23 07:38:19;;;;;;;0.55;0.40;;;;;;;-145.06;100.00;60892.56;5911275;23;20002;-92
2022/09/23 07:41:04;;;;;;;0.82;0.50;;;;;;;-145.06;100.00;60892.56;5911327;23;20014;-93
2022/09/23 07:43:44;;;;;;;0.50;0.50;;;;;;;-145.06;100.00;60892.56;5911097;23;20520;-92
2022/09/23 07:46:28;;;;;;;0.82;0.47;;;;;;;-145.06;100.00;60892.56;5911869;23;20006;-92
2022/09/23 07:49:09;;;;;;;0.77;0.50;;;;;;;-145.06;100.00;60892.56;5911055;23;20037;-92
2022/09/23 07:51:48;;;;;;;0.68;0.50;;;;;;;-145.06;100.00;60892.56;5911895;23;19998;-92
2022/09/23 07:54:34;;;;;;;1.15;0.60;;;;;;;-145.06;100.00;60892.56;5911550;23;20006;-92
2022/09/23 07:57:13;;;;;;;1.15;0.47;;;;;;;-145.06;100.00;60892.56;5911015;23;20005;-92
2022/09/23 07:59:51;;;;;;;0.57;0.50;;;;;;;-145.06;100.00;60892.56;5911210;23;20006;-92
2022/09/23 08:02:30;;;;;;;1.60;0.70;;;;;;;-145.06;100.00;60892.56;5911316;23;20006;-93
2022/09/23 08:05:15;;;;;;;0.80;0.60;;;;;;;-145.06;100.00;60892.56;5911546;23;20006;-93
2022/09/23 08:07:54;;;;;;;0.47;0.30;;;;;;;-145.06;100.00;60892.56;5911224;23;20009;-92
2022/09/23 08:10:33;;;;;;;0.80;0.55;;;;;;;-145.06;100.00;60892.56;5911286;23;19997;-93
2022/09/23 08:13:12;;;;;;;0.60;0.60;;;;;;;-145.06;100.00;60892.56;5910961;23;20006;-91
2022/09/23 08:15:51;;;;;;;0.70;0.50;;;;;;;-145.06;100.00;60892.56;5911260;23;20006;-92
2022/09/23 08:18:30;;;;;;;1.13;0.67;;;;;;;-145.06;100.00;60892.56;5911258;23;20014;-92
2022/09/23 08:21:10;;;;;;;0.60;0.40;;;;;;;-145.06;100.00;60892.56;5911559;23;20010;-90
2022/09/23 08:23:49;;;;;;;0.77;0.40;;;;;;;-145.06;100.00;60892.56;5910857;23;20089;-94
2022/09/23 08:26:33;;;;;;;0.30;0.30;;;;;;;-145.06;100.00;60892.56;5911134;23;20037;-93
2022/09/23 08:29:14;;;;;;;0.40;0.38;;;;;;;-145.06;100.00;60892.56;5911368;23;20311;-95
2022/09/23 08:31:54;;;;;;;0.70;0.50;;;;;;;-145.06;100.00;60892.56;5911033;23;19998;-93
2022/09/23 08:34:34;;;;;;;1.10;0.57;;;;;;;-145.06;100.00;60892.56;5911380;23;20006;-93
2022/09/23 08:37:14;;;;;;;0.93;0.50;;;;;;;-145.06;100.00;60892.56;5911278;23;20006;-93
2022/09/23 08:39:52;;;;;;;0.60;0.40;;;;;;;-145.06;100.00;60892.56;5910355;23;20002;-91
2022/09/23 08:42:33;;;;;;;0.50;0.40;;;;;;;-145.06;100.00;60892.56;5911266;23;20010;-91
2022/09/23 08:45:35;;;;;;;0.70;0.40;;;;;;;-145.06;100.00;60892.56;5910706;23;20010;-92
2022/09/23 08:48:34;;;;;;;0.70;0.40;;;;;;;-145.06;100.00;60892.56;5911006;23;20089;-92
2022/09/23 08:51:25;;;;;;;0.70;0.30;;;;;;;-145.06;100.00;60892.56;5911712;23;20002;-93
2022/09/23 08:54:10;;;;;;;1.60;0.50;;;;;;;-145.06;100.00;60892.56;5910627;23;20030;-92
2022/09/23 08:57:04;;;;;;;0.60;0.40;;;;;;;-145.06;100.00;60892.56;5911100;23;20006;-92
2022/09/23 09:00:01;;;;;;;;;;;;;;;;;;;;;
2022/09/23 09:02:46;;;;;;;0.57;0.38;;;;;;;-145.06;100.00;60892.56;5921390;23;20316;-92
2022/09/23 09:05:27;;;;;;;1.52;0.43;;;;;;;-145.06;100.00;60892.56;5911096;23;20005;-93
2022/09/23 09:08:10;;;;;;;0.80;0.45;;;;;;;-145.06;100.00;60892.56;5910493;23;20009;-92
2022/09/23 09:10:59;;;;;;;0.40;0.40;;;;;;;-145.06;100.00;60892.56;5911399;23;20010;-92
2022/09/23 09:13:52;;;;;;;0.50;0.38;;;;;;;-145.06;100.00;60892.56;5910450;23;20085;-94
2022/09/23 09:16:55;;;;;;;0.30;0.30;;;;;;;-145.06;100.00;60892.56;5909583;23;20014;-94
2022/09/23 09:20:17;;;;;;;0.73;0.43;;;;;;;-145.06;100.00;60892.56;5909422;23;20039;-93
2022/09/23 09:23:08;;;;;;;0.40;0.32;;;;;;;-145.06;100.00;60892.56;5879947;23;20038;-94
2022/09/23 09:25:50;;;;;;;0.43;0.30;;;;;;;-145.06;100.00;60892.56;5909333;23;20449;-93
2022/09/23 09:28:35;;;;;;;0.43;0.40;;;;;;;-145.06;100.00;60892.56;5909484;23;20033;-93
2022/09/23 09:31:48;;;;;;;0.50;0.43;;;;;;;-145.06;100.00;60892.56;5910074;23;19998;-93
2022/09/23 09:34:43;;;;;;;0.60;0.40;;;;;;;-145.06;100.00;60892.56;5910426;23;20065;-93
2022/09/23 09:37:34;;;;;;;0.60;0.30;;;;;;;-145.06;100.00;60892.56;5911017;23;20009;-93
2022/09/23 09:40:19;;;;;;;0.65;0.32;;;;;;;-145.06;100.00;60892.56;5910633;23;20006;-92
2022/09/23 09:42:57;;;;;;;0.30;0.30;;;;;;;-145.06;100.00;60892.56;5910623;23;20429;-92
2022/09/23 09:45:55;;;;;;;0.43;0.40;;;;;;;-145.06;100.00;60892.56;5910519;23;20010;-91
2022/09/23 09:49:09;;;;;;;0.70;0.38;;;;;;;-145.06;100.00;60892.56;5910696;23;20006;-93
2022/09/23 09:52:27;;;;;;;0.28;0.28;;;;;;;-145.06;100.00;60892.56;5910836;23;20006;-93
2022/09/23 09:55:12;;;;;;;0.57;0.30;;;;;;;-145.06;100.00;60892.56;5911382;23;20310;-95
2022/09/23 09:58:15;;;;;;;0.68;0.47;;;;;;;-145.06;100.00;60892.56;5910411;23;20001;-92
2022/09/23 10:00:54;;;;;;;0.95;0.20;;;;;;;-145.06;100.00;60892.56;5910592;23;20006;-91
2022/09/23 10:03:43;;;;;;;0.55;0.40;;;;;;;-145.06;100.00;60892.56;5910530;23;20006;-93
2022/09/23 10:07:20;;;;;;;0.52;0.43;;;;;;;-145.06;100.00;60892.56;5910514;23;20433;-92
2022/09/23 10:10:30;;;;;;;0.30;0.30;;;;;;;-145.06;100.00;60892.56;5910647;23;20006;-91
2022/09/23 10:13:19;;;;;;;0.90;0.30;;;;;;;-145.06;100.00;60892.56;5910351;23;20034;-92
2022/09/23 10:16:02;;;;;;;0.25;0.20;;;;;;;-145.06;100.00;60892.56;5910322;23;20010;-92
2022/09/23 10:19:08;;;;;;;0.90;0.30;;;;;;;-145.06;100.00;60892.56;5771428;23;3420661;-92
2022/09/23 10:21:57;;;;;;;0.65;0.30;;;;;;;-145.06;100.00;60892.56;5912597;23;20234;-93
2022/09/23 10:24:39;;;;;;;0.50;0.30;;;;;;;-145.06;100.00;60892.56;5911299;23;20010;-90
2022/09/23 10:27:33;;;;;;;0.30;0.30;;;;;;;-145.06;100.00;60892.56;5912029;23;20002;-93
2022/09/23 10:30:29;;;;;;;1.40;0.25;;;;;;;-145.06;100.00;60892.56;5911503;23;20002;-92
2022/09/23 10:33:53;;;;;;;0.77;0.20;;;;;;;-145.06;100.00;60892.56;5912210;23;20010;-93
2022/09/23 10:36:40;;;;;;;0.80;0.20;;;;;;;-145.06;100.00;60892.56;5911341;23;20033;-94
2022/09/23 10:49:13;;;;;;;0.25;0.20;;;;;;;-145.06;100.00;60892.56;5922301;23;20002;-93
2022/09/23 10:52:55;;;;;;;0.65;0.30;;;;;;;-145.06;100.00;60892.56;5911478;23;20002;-93
2022/09/23 10:55:49;;;;;;;0.90;0.20;;;;;;;-145.06;100.00;60892.56;5911428;23;20006;-94
2022/09/23 10:59:03;;;;;;;0.28;0.22;;;;;;;-145.06;100.00;60892.56;5911710;23;20001;-92
2022/09/23 11:01:48;;;;;;;0.20;0.20;;;;;;;-145.06;100.00;60892.56;5911771;23;20029;-92
2022/09/23 11:05:48;;;;;;;0.70;0.30;;;;;;;-145.06;100.00;60892.56;5912123;23;20006;-94
2022/09/23 11:09:07;;;;;;;1.58;0.30;;;;;;;-145.06;100.00;60892.56;5884870;23;20006;-93
2022/09/23 11:11:58;;;;;;;0.60;0.28;;;;;;;-145.06;100.00;60892.56;5913115;23;20001;-94
2022/09/23 11:15:19;;;;;;;0.60;0.40;;;;;;;-145.06;100.00;60892.56;5911660;23;20005;-92
2022/09/23 11:18:15;;;;;;;0.47;0.30;;;;;;;-145.06;100.00;60892.56;5911573;23;20006;-92
2022/09/23 11:21:19;;;;;;;0.50;0.30;;;;;;;-145.06;100.00;60892.56;5911600;23;20006;-94
2022/09/23 11:24:07;;;;;;;0.32;0.28;;;;;;;-145.06;100.00;60892.56;5911421;23;20002;-93
2022/09/23 11:57:11;;;;;;;0.20;0.20;;;;;;;-145.06;100.00;60892.56;5883632;23;20581;-95
2022/09/23 11:59:58;;;;;;;0.32;0.20;;;;;;;-145.06;100.00;60892.56;5883195;23;20010;-94
2022/09/23 12:02:56;;;;;;;0.38;0.20;;;;;;;-145.06;100.00;60892.56;5882446;23;20437;-96
2022/09/23 12:05:44;;;;;;;0.45;0.20;;;;;;;-145.06;100.00;60892.56;5883017;23;20441;-94
2022/09/23 12:08:25;;;;;;;0.63;0.28;;;;;;;-145.06;100.00;60892.56;5882492;23;20003;-95
2022/09/23 12:11:16;;;;;;;0.22;0.20;;;;;;;-145.06;100.00;60892.56;5882366;23;20425;-94
2022/09/23 12:14:11;;;;;;;0.38;0.20;;;;;;;-145.06;100.00;60892.56;5882546;23;20002;-93
2022/09/23 12:17:05;;;;;;;0.10;0.10;;;;;;;-145.06;100.00;60892.56;5881914;23;20010;-95
2022/09/23 12:20:07;;;;;;;0.20;0.20;;;;;;;-145.06;100.00;60892.56;5882015;23;20073;-94
2022/09/23 12:23:23;;;;;;;0.20;0.20;;;;;;;-145.06;100.00;60892.56;5882443;23;20006;-94
2022/09/23 12:26:11;;;;;;;0.20;0.20;;;;;;;-145.06;100.00;60892.56;5882476;23;20002;-93
2022/09/23 12:28:54;;;;;;;0.30;0.20;;;;;;;-145.06;100.00;60892.56;5882252;23;20030;-94
2022/09/23 12:31:37;;;;;;;0.30;0.30;;;;;;;-145.06;100.00;60892.56;5882338;23;20010;-93
2022/09/23 12:34:26;;;;;;;0.20;0.20;;;;;;;-145.06;100.00;60892.56;5881879;23;20002;-95
2022/09/23 12:37:05;;;;;;;0.22;0.20;;;;;;;-145.06;100.00;60892.56;5882017;23;20034;-94
2022/09/23 12:39:47;;;;;;;0.50;0.47;;;;;;;-145.06;100.00;60892.56;5882467;23;20014;-94
2022/09/23 12:42:26;;;;;;;0.25;0.20;;;;;;;-145.06;100.00;60892.56;5881930;23;20239;-94
2022/09/23 12:45:37;;;;;;;0.22;0.20;;;;;;;-145.06;100.00;60892.56;5882723;23;20034;-95
2022/09/23 12:48:16;;;;;;;0.98;0.30;;;;;;;-145.06;100.00;60892.56;5879940;23;20002;-93
2022/09/23 12:51:06;;;;;;;0.47;0.30;;;;;;;-145.06;100.00;60892.56;5881775;23;20003;-94
2022/09/23 12:54:03;;;;;;;0.22;0.20;;;;;;;-145.06;100.00;60892.56;5882288;23;20010;-94
2022/09/23 12:56:55;;;;;;;1.60;0.30;;;;;;;-145.06;100.00;60892.56;5882637;23;20010;-94
2022/09/23 12:59:55;;;;;;;0.52;0.30;;;;;;;-145.06;100.00;60892.56;5882978;23;20307;-93
2022/09/23 13:02:41;;;;;;;0.30;0.30;;;;;;;-145.06;100.00;60892.56;5882209;23;20002;-94
2022/09/23 13:08:23;;;;;;;0.35;0.30;;;;;;;-145.06;100.00;60892.56;5893301;23;20268;-93
2022/09/23 13:11:12;;;;;;;1.25;0.30;;;;;;;-145.06;100.00;60892.56;5884211;23;19999;-93
2022/09/23 13:13:53;;;;;;;0.40;0.30;;;;;;;-145.06;100.00;60892.56;5895119;23;20011;-94
2022/09/23 13:16:35;;;;;;;0.40;0.30;;;;;;;-145.06;100.00;60892.56;5884816;23;20007;-95
2022/09/23 13:19:26;;;;;;;0.52;0.35;;;;;;;-145.06;100.00;60892.56;5883532;23;20501;-94
2022/09/23 13:22:07;;;;;;;0.70;0.40;;;;;;;-145.06;100.00;60892.56;5884200;23;20034;-95
2022/09/23 13:24:52;;;;;;;0.80;0.40;;;;;;;-145.06;100.00;60892.56;5894639;23;20006;-94
2022/09/23 13:27:35;;;;;;;1.65;0.45;;;;;;;-145.06;100.00;60892.56;5883847;23;20037;-93
2022/09/23 13:30:18;;;;;;;0.47;0.30;;;;;;;-145.06;100.00;60892.56;5883945;23;20006;-93
2022/09/23 13:33:25;;;;;;;0.77;0.30;;;;;;;-145.06;100.00;60892.56;5883750;23;20006;-93
2022/09/23 13:36:10;;;;;;;0.60;0.30;;;;;;;-145.06;100.00;60892.56;5883569;23;20442;-94
2022/09/23 13:38:49;;;;;;;1.15;0.50;;;;;;;-145.06;100.00;60892.56;5883780;23;20010;-96
2022/09/23 13:41:31;;;;;;;0.63;0.50;;;;;;;-145.06;100.00;60892.56;5884367;23;20030;-94
2022/09/23 13:44:20;;;;;;;0.30;0.28;;;;;;;-145.06;100.00;60892.56;5884584;23;20010;-95